createdAt,value
2023-01-30T00:01:56.366Z,19.42
2023-01-30T00:04:24.599Z,21.92
2023-01-30T00:06:52.800Z,23.45
2023-01-30T00:09:22.459Z,22.25
2023-01-30T00:11:50.384Z,27.40
2023-01-30T00:14:18.540Z,22.80
2023-01-30T00:16:46.918Z,23.45
2023-01-30T00:19:14.980Z,25.42
2023-01-30T00:21:43.316Z,22.33
2023-01-30T00:24:12.413Z,23.05
2023-01-30T00:26:41.932Z,25.08
2023-01-30T00:29:10.068Z,26.13
2023-01-30T00:31:38.160Z,21.88
2023-01-30T00:34:06.376Z,27.85
2023-01-30T00:36:34.390Z,23.27
2023-01-30T00:39:02.406Z,28.23
2023-01-30T00:41:52.046Z,25.27
2023-01-30T00:44:42.396Z,26.25
2023-01-30T00:47:10.986Z,24.02
2023-01-30T00:49:39.036Z,26.20
2023-01-30T00:52:07.338Z,24.70
2023-01-30T00:54:36.890Z,23.83
2023-01-30T00:57:11.664Z,26.08
2023-01-30T00:59:42.135Z,23.83
2023-01-30T01:02:10.373Z,22.40
2023-01-30T01:04:43.378Z,25.67
2023-01-30T01:07:11.874Z,26.63
2023-01-30T01:09:40.397Z,29.30
2023-01-30T01:12:09.425Z,25.60
2023-01-30T01:14:37.432Z,25.13
2023-01-30T01:17:11.345Z,28.38
2023-01-30T01:19:39.351Z,27.40
2023-01-30T01:22:07.721Z,29.52
2023-01-30T01:24:35.876Z,27.23
2023-01-30T01:27:04.063Z,24.98
2023-01-30T01:29:32.070Z,31.02
2023-01-30T01:32:00.294Z,30.50
2023-01-30T01:34:29.837Z,25.77
2023-01-30T01:36:57.844Z,28.30
2023-01-30T01:39:46.055Z,27.35
2023-01-30T01:42:13.287Z,28.60
2023-01-30T01:45:02.511Z,26.52
2023-01-30T01:47:31.247Z,24.33
2023-01-30T01:50:00.813Z,26.23
2023-01-30T01:52:30.703Z,24.95
2023-01-30T01:55:01.515Z,24.58
2023-01-30T01:57:34.354Z,25.88
2023-01-30T02:00:05.290Z,24.23
2023-01-30T02:02:35.240Z,26.08
2023-01-30T02:05:07.082Z,31.75
2023-01-30T02:07:38.888Z,32.00
2023-01-30T02:10:08.971Z,32.83
2023-01-30T02:12:38.451Z,28.08
2023-01-30T02:15:08.928Z,29.20
2023-01-30T02:17:37.327Z,27.67
2023-01-30T02:20:13.282Z,32.17
2023-01-30T02:22:57.589Z,24.40
2023-01-30T02:26:00.567Z,29.42
2023-01-30T02:29:02.258Z,29.95
2023-01-30T02:31:37.015Z,25.95
2023-01-30T02:34:13.497Z,34.05
2023-01-30T02:36:51.944Z,28.42
2023-01-30T02:39:29.168Z,26.42
2023-01-30T02:42:05.331Z,26.85
2023-01-30T02:44:37.671Z,32.70
2023-01-30T02:47:10.169Z,27.45
2023-01-30T02:49:41.280Z,30.52
2023-01-30T02:52:11.540Z,30.08
2023-01-30T02:54:39.769Z,29.95
2023-01-30T02:57:18.665Z,29.95
2023-01-30T02:59:49.862Z,31.45
2023-01-30T03:02:33.251Z,35.45
2023-01-30T03:05:18.612Z,28.98
2023-01-30T03:07:52.711Z,26.25
2023-01-30T03:10:27.572Z,27.73
2023-01-30T03:13:02.314Z,23.80
2023-01-30T03:15:34.599Z,26.73
2023-01-30T03:20:37.052Z,28.55
2023-01-30T03:23:05.671Z,31.67
2023-01-30T03:25:35.027Z,27.20
2023-01-30T03:28:04.985Z,29.65
2023-01-30T03:30:33.170Z,26.77
2023-01-30T03:33:01.189Z,25.33
2023-01-30T03:35:31.531Z,27.90
2023-01-30T03:38:00.168Z,29.50
2023-01-30T03:40:30.040Z,31.73
2023-01-30T03:42:58.744Z,26.17
2023-01-30T03:45:26.877Z,28.15
2023-01-30T03:47:55.096Z,28.48
2023-01-30T03:50:23.285Z,30.58
2023-01-30T03:52:52.657Z,29.42
2023-01-30T03:55:20.914Z,29.73
2023-01-30T03:57:50.794Z,30.90
2023-01-30T04:00:19.825Z,28.15
2023-01-30T04:02:47.916Z,26.42
2023-01-30T04:05:16.373Z,31.35
2023-01-30T04:07:45.975Z,27.10
2023-01-30T04:10:15.812Z,29.17
2023-01-30T04:12:43.943Z,27.48
2023-01-30T04:15:12.684Z,32.17
2023-01-30T04:17:41.813Z,25.13
2023-01-30T04:20:11.109Z,29.67
2023-01-30T04:22:39.095Z,26.17
2023-01-30T04:25:07.554Z,26.30
2023-01-30T04:27:37.605Z,24.33
2023-01-30T04:30:07.154Z,25.55
2023-01-30T04:32:35.516Z,24.20
2023-01-30T04:35:04.125Z,28.67
2023-01-30T04:37:32.618Z,25.42
2023-01-30T04:40:00.998Z,29.92
2023-01-30T04:42:29.047Z,28.23
2023-01-30T04:44:58.613Z,25.67
2023-01-30T04:47:26.569Z,29.15
2023-01-30T04:49:55.314Z,28.60
2023-01-30T04:52:23.307Z,27.63
2023-01-30T04:54:51.557Z,25.17
2023-01-30T04:57:19.642Z,28.67
2023-01-30T04:59:47.649Z,29.77
2023-01-30T05:02:17.265Z,30.00
2023-01-30T05:04:45.515Z,28.02
2023-01-30T05:07:13.690Z,29.80
2023-01-30T05:09:41.831Z,26.63
2023-01-30T05:12:11.313Z,32.15
2023-01-30T05:14:41.332Z,30.63
2023-01-30T05:17:09.722Z,32.75
2023-01-30T05:19:39.060Z,34.95
2023-01-30T05:22:07.168Z,33.53
2023-01-30T05:24:35.207Z,41.33
2023-01-30T05:27:03.602Z,39.15
2023-01-30T05:29:31.790Z,39.47
2023-01-30T05:32:01.001Z,39.65
2023-01-30T05:34:29.318Z,41.60
2023-01-30T05:36:59.006Z,45.35
2023-01-30T05:39:27.108Z,40.30
2023-01-30T05:41:55.051Z,42.22
2023-01-30T05:44:23.002Z,50.63
2023-01-30T05:46:51.235Z,41.70
2023-01-30T05:49:19.640Z,40.42
2023-01-30T05:51:49.937Z,44.25
2023-01-30T05:54:20.166Z,43.58
2023-01-30T05:56:50.694Z,43.80
2023-01-30T05:59:20.039Z,43.40
2023-01-30T06:01:48.038Z,41.22
2023-01-30T06:04:16.261Z,48.13
2023-01-30T06:06:44.284Z,45.83
2023-01-30T06:09:12.383Z,46.65
2023-01-30T06:11:41.638Z,38.30
2023-01-30T06:14:09.837Z,43.17
2023-01-30T06:16:38.046Z,44.05
2023-01-30T06:19:06.067Z,39.55
2023-01-30T06:21:34.047Z,38.78
2023-01-30T06:24:02.399Z,35.20
2023-01-30T06:26:30.455Z,37.88
2023-01-30T06:28:59.721Z,31.00
2023-01-30T06:31:28.107Z,31.17
2023-01-30T06:33:56.589Z,37.50
2023-01-30T06:36:26.221Z,28.45
2023-01-30T06:38:54.475Z,34.65
2023-01-30T06:41:22.682Z,33.55
2023-01-30T06:43:51.368Z,30.92
2023-01-30T06:46:20.931Z,29.67
2023-01-30T06:48:49.236Z,31.05
2023-01-30T06:51:17.536Z,23.20
2023-01-30T06:53:46.912Z,25.42
2023-01-30T06:56:15.270Z,23.38
2023-01-30T06:58:43.694Z,22.08
2023-01-30T07:01:11.712Z,23.52
2023-01-30T07:03:41.194Z,23.75
2023-01-30T07:06:10.547Z,18.08
2023-01-30T07:08:40.947Z,18.35
2023-01-30T07:11:09.894Z,17.13
2023-01-30T07:13:37.948Z,16.02
2023-01-30T07:16:06.568Z,17.85
2023-01-30T07:18:34.747Z,15.00
2023-01-30T07:21:04.314Z,15.65
2023-01-30T07:23:33.500Z,17.02
2023-01-30T07:26:04.573Z,13.00
2023-01-30T07:28:32.619Z,16.40
2023-01-30T07:31:01.116Z,13.68
2023-01-30T07:33:29.343Z,14.52
2023-01-30T07:35:57.626Z,12.80
2023-01-30T07:38:27.144Z,14.93
2023-01-30T07:40:55.327Z,13.77
2023-01-30T07:43:23.863Z,14.00
2023-01-30T07:45:51.895Z,12.80
2023-01-30T07:48:20.753Z,13.77
2023-01-30T07:50:49.039Z,11.98
2023-01-30T07:53:18.522Z,12.52
2023-01-30T07:55:47.967Z,11.48
2023-01-30T07:58:17.500Z,12.00
2023-01-30T08:00:47.651Z,11.45
2023-01-30T08:03:17.333Z,12.13
2023-01-30T08:05:46.784Z,13.63
2023-01-30T08:08:16.014Z,14.07
2023-01-30T08:10:45.433Z,14.05
2023-01-30T08:13:20.650Z,13.90
2023-01-30T08:15:49.870Z,14.18
2023-01-30T08:18:18.129Z,14.05
2023-01-30T08:20:46.207Z,13.93
2023-01-30T08:23:14.320Z,14.25
2023-01-30T08:25:47.991Z,14.20
2023-01-30T08:28:17.705Z,12.38
2023-01-30T08:30:47.733Z,12.95
2023-01-30T08:33:16.717Z,11.80
2023-01-30T08:35:48.003Z,9.57
2023-01-30T08:38:16.487Z,7.77
2023-01-30T08:40:46.448Z,5.22
2023-01-30T08:43:14.933Z,6.45
2023-01-30T08:45:44.318Z,7.47
2023-01-30T08:48:14.664Z,7.00
2023-01-30T08:50:43.113Z,6.75
2023-01-30T08:53:11.270Z,6.80
2023-01-30T08:55:39.742Z,10.40
2023-01-30T08:58:07.903Z,9.43
2023-01-30T09:00:36.501Z,7.63
2023-01-30T09:03:05.938Z,7.30
2023-01-30T09:05:35.831Z,8.38
2023-01-30T09:08:04.754Z,12.00
2023-01-30T09:10:32.951Z,10.07
2023-01-30T09:13:01.572Z,11.00
2023-01-30T09:15:30.435Z,8.57
2023-01-30T09:17:58.895Z,9.93
2023-01-30T09:20:28.385Z,10.15
2023-01-30T09:22:56.456Z,9.63
2023-01-30T09:25:25.011Z,10.70
2023-01-30T09:27:53.086Z,6.03
2023-01-30T09:30:22.863Z,12.52
2023-01-30T09:32:51.190Z,7.22
2023-01-30T09:35:19.588Z,8.15
2023-01-30T09:37:50.184Z,6.68
2023-01-30T09:40:23.830Z,5.07
2023-01-30T09:43:03.819Z,12.40
2023-01-30T09:45:48.503Z,3.67
2023-01-30T09:48:21.333Z,3.90
2023-01-30T09:51:20.377Z,6.97
2023-01-30T09:54:01.011Z,9.60
2023-01-30T09:56:32.825Z,10.90
2023-01-30T09:59:03.466Z,8.57
2023-01-30T10:01:42.717Z,12.95
2023-01-30T10:04:15.760Z,6.90
2023-01-30T10:06:53.512Z,5.63
2023-01-30T10:09:32.040Z,25.75
2023-01-30T10:12:14.041Z,12.35
2023-01-30T10:14:58.987Z,12.45
2023-01-30T10:17:44.396Z,12.68
2023-01-30T10:20:23.509Z,12.23
2023-01-30T10:22:59.862Z,12.95
2023-01-30T10:25:33.368Z,14.30
2023-01-30T10:28:12.703Z,8.70
2023-01-30T10:30:42.654Z,11.00
2023-01-30T10:33:27.179Z,12.18
2023-01-30T10:36:07.252Z,14.13
2023-01-30T10:38:40.854Z,10.98
2023-01-30T10:41:19.753Z,10.88
2023-01-30T10:43:55.537Z,13.95
2023-01-30T10:46:32.805Z,16.30
2023-01-30T10:49:07.369Z,13.50
2023-01-30T10:51:43.733Z,17.70
2023-01-30T10:54:17.456Z,14.13
2023-01-30T10:56:55.737Z,10.80
2023-01-30T10:59:26.882Z,14.73
2023-01-30T11:02:02.493Z,19.73
2023-01-30T11:04:34.357Z,16.10
2023-01-30T11:07:03.189Z,21.05
2023-01-30T11:09:40.161Z,30.00
2023-01-30T11:12:11.532Z,14.07
2023-01-30T11:14:53.969Z,17.63
2023-01-30T11:17:33.106Z,15.48
2023-01-30T11:20:13.823Z,14.70
2023-01-30T11:22:47.907Z,16.23
2023-01-30T11:25:21.168Z,14.32
2023-01-30T11:27:56.225Z,17.33
2023-01-30T11:30:29.114Z,16.75
2023-01-30T11:33:07.178Z,15.82
2023-01-30T11:35:39.832Z,14.95
2023-01-30T11:38:22.647Z,22.00
2023-01-30T11:40:51.105Z,17.73
2023-01-30T11:43:27.826Z,16.55
2023-01-30T11:45:56.693Z,18.30
2023-01-30T11:48:32.901Z,22.08
2023-01-30T11:51:18.283Z,14.50
2023-01-30T11:53:50.769Z,22.00
2023-01-30T11:56:23.392Z,15.27
2023-01-30T11:58:58.280Z,15.10
2023-01-30T12:01:28.930Z,16.20
2023-01-30T12:04:00.720Z,22.02
2023-01-30T12:06:31.850Z,19.17
2023-01-30T12:09:00.521Z,13.70
2023-01-30T12:11:32.360Z,14.13
2023-01-30T12:14:19.076Z,20.00
2023-01-30T12:16:59.340Z,17.77
2023-01-30T12:19:35.800Z,12.25
2023-01-30T12:22:12.489Z,19.42
2023-01-30T12:24:46.888Z,14.48
2023-01-30T12:27:19.003Z,18.40
2023-01-30T12:29:58.521Z,17.23
2023-01-30T12:32:28.612Z,17.73
2023-01-30T12:34:57.717Z,15.80
2023-01-30T12:37:47.109Z,15.88
2023-01-30T12:40:37.468Z,14.23
2023-01-30T12:43:37.080Z,19.48
2023-01-30T12:46:17.667Z,6.93
2023-01-30T12:49:11.620Z,9.18
2023-01-30T12:52:00.111Z,14.30
2023-01-30T12:54:39.235Z,18.65
2023-01-30T12:57:18.969Z,11.32
2023-01-30T12:59:53.392Z,13.05
2023-01-30T13:02:44.923Z,15.48
2023-01-30T13:05:23.135Z,13.55
2023-01-30T13:08:20.202Z,13.18
2023-01-30T13:10:53.158Z,13.55
2023-01-30T13:13:25.871Z,13.07
2023-01-30T13:16:01.792Z,12.50
2023-01-30T13:18:34.795Z,18.80
2023-01-30T13:21:10.007Z,13.63
2023-01-30T13:23:46.060Z,9.48
2023-01-30T13:26:20.183Z,17.17
2023-01-30T13:28:53.495Z,17.10
2023-01-30T13:31:26.541Z,12.43
2023-01-30T13:34:03.756Z,16.33
2023-01-30T13:36:39.442Z,17.05
2023-01-30T13:39:13.179Z,15.20
2023-01-30T13:41:45.126Z,12.48
2023-01-30T13:44:19.733Z,14.95
2023-01-30T13:46:49.055Z,17.52
2023-01-30T13:49:25.122Z,15.73
2023-01-30T13:51:59.424Z,12.75
2023-01-30T13:54:40.311Z,16.67
2023-01-30T13:57:16.072Z,23.45
2023-01-30T14:00:00.720Z,21.17
2023-01-30T14:02:29.037Z,6.43
2023-01-30T14:04:59.707Z,11.63
2023-01-30T14:07:30.116Z,8.68
2023-01-30T14:10:14.085Z,4.93
2023-01-30T14:12:44.640Z,7.25
2023-01-30T14:15:29.529Z,9.48
2023-01-30T14:18:00.342Z,6.45
2023-01-30T14:20:31.357Z,6.03
2023-01-30T14:23:04.670Z,10.48
2023-01-30T14:25:49.410Z,6.10
2023-01-30T14:28:51.505Z,4.30
2023-01-30T14:31:54.508Z,3.28
2023-01-30T14:34:52.376Z,4.80
2023-01-30T14:37:47.225Z,3.75
2023-01-30T14:40:47.581Z,4.07
2023-01-30T14:43:51.462Z,6.22
2023-01-30T14:46:54.649Z,3.55
2023-01-30T14:49:28.153Z,4.10
2023-01-30T14:51:57.378Z,8.85
2023-01-30T14:54:41.282Z,11.90
2023-01-30T14:57:27.675Z,10.95
2023-01-30T15:00:14.950Z,12.73
2023-01-30T15:02:51.159Z,5.28
2023-01-30T15:05:22.125Z,10.05
2023-01-30T15:07:52.283Z,6.88
2023-01-30T15:10:40.423Z,9.05
2023-01-30T15:13:27.257Z,12.02
2023-01-30T15:16:06.522Z,9.50
2023-01-30T15:18:46.529Z,6.03
2023-01-30T15:21:38.264Z,6.20
2023-01-30T15:24:27.998Z,13.80
2023-01-30T15:27:04.958Z,8.32
2023-01-30T15:29:59.979Z,8.68
2023-01-30T15:32:29.812Z,10.25
2023-01-30T15:34:59.918Z,6.63
2023-01-30T15:37:43.114Z,5.63
2023-01-30T15:40:20.605Z,5.22
2023-01-30T15:42:52.197Z,8.48
2023-01-30T15:45:31.178Z,6.57
2023-01-30T15:48:17.338Z,8.05
2023-01-30T15:50:49.175Z,9.20
2023-01-30T15:53:17.909Z,13.52
2023-01-30T15:55:46.462Z,11.75
2023-01-30T15:58:19.185Z,14.35
2023-01-30T16:00:48.780Z,13.10
2023-01-30T16:03:24.434Z,11.38
2023-01-30T16:05:56.892Z,7.75
2023-01-30T16:08:27.262Z,14.32
2023-01-30T16:10:59.163Z,20.25
2023-01-30T16:13:30.341Z,9.68
2023-01-30T16:16:01.071Z,14.13
2023-01-30T16:18:33.031Z,8.80
2023-01-30T16:21:03.250Z,16.70
2023-01-30T16:23:36.839Z,6.28
2023-01-30T16:26:09.365Z,11.73
2023-01-30T16:28:39.272Z,21.17
2023-01-30T16:31:12.461Z,23.83
2023-01-30T16:33:42.401Z,22.50
2023-01-30T16:36:33.936Z,21.23
2023-01-30T16:39:03.582Z,20.33
2023-01-30T16:41:34.971Z,14.27
2023-01-30T16:44:24.942Z,14.60
2023-01-30T16:46:58.998Z,23.67
2023-01-30T16:49:38.901Z,26.02
2023-01-30T16:52:14.873Z,12.65
2023-01-30T16:54:46.919Z,20.13
2023-01-30T16:57:32.003Z,22.50
2023-01-30T17:00:02.466Z,18.90
2023-01-30T17:02:35.053Z,16.02
2023-01-30T17:05:22.068Z,13.63
2023-01-30T17:07:51.257Z,14.93
2023-01-30T17:10:48.886Z,19.63
2023-01-30T17:13:32.178Z,8.48
2023-01-30T17:16:21.232Z,17.67
2023-01-30T17:18:50.195Z,20.50
2023-01-30T17:21:19.224Z,17.15
2023-01-30T17:23:49.999Z,19.52
2023-01-30T17:26:20.158Z,17.10
2023-01-30T17:28:48.271Z,19.73
2023-01-30T17:31:18.479Z,20.02
2023-01-30T17:33:48.091Z,20.98
2023-01-30T17:36:21.857Z,20.75
2023-01-30T17:38:52.089Z,16.48
2023-01-30T17:41:21.945Z,22.38
2023-01-30T17:43:50.958Z,18.42
2023-01-30T17:46:24.158Z,12.25
2023-01-30T17:48:56.860Z,20.63
2023-01-30T17:51:24.948Z,39.67
2023-01-30T17:53:53.156Z,26.15
2023-01-30T17:56:23.848Z,24.13
2023-01-30T17:58:52.072Z,24.95
2023-01-30T18:01:21.334Z,24.90
2023-01-30T18:03:49.634Z,30.65
2023-01-30T18:06:19.487Z,24.30
2023-01-30T18:08:47.887Z,36.00
2023-01-30T18:11:20.689Z,25.05
2023-01-30T18:13:49.790Z,27.45
2023-01-30T18:16:21.765Z,24.52
2023-01-30T18:18:50.362Z,25.73
2023-01-30T18:21:22.568Z,25.45
2023-01-30T18:26:20.390Z,35.90
2023-01-30T18:28:49.281Z,26.48
2023-01-30T18:31:18.450Z,24.85
2023-01-30T18:33:47.859Z,26.65
2023-01-30T18:36:21.058Z,25.23
2023-01-30T18:38:50.827Z,19.33
2023-01-30T18:41:20.940Z,21.85
2023-01-30T18:43:54.423Z,31.10
2023-01-30T18:46:22.608Z,26.30
2023-01-30T18:48:51.071Z,35.20
2023-01-30T18:51:20.903Z,26.88
2023-01-30T18:53:55.694Z,28.30
2023-01-30T18:56:26.424Z,30.48
2023-01-30T18:58:57.262Z,28.63
2023-01-30T19:01:27.436Z,25.20
2023-01-30T19:03:56.283Z,27.77
2023-01-30T19:06:24.921Z,21.55
2023-01-30T19:08:58.417Z,28.67
2023-01-30T19:11:44.522Z,31.30
2023-01-30T19:14:14.350Z,19.88
2023-01-30T19:16:43.343Z,28.23
2023-01-30T19:19:14.000Z,35.38
2023-01-30T19:21:45.115Z,25.75
2023-01-30T19:24:16.817Z,25.77
2023-01-30T19:26:45.303Z,28.98
2023-01-30T19:29:13.740Z,29.52
2023-01-30T19:31:42.268Z,33.22
2023-01-30T19:34:12.432Z,26.77
2023-01-30T19:36:41.557Z,24.88
2023-01-30T19:39:11.033Z,26.15
2023-01-30T19:41:40.544Z,28.05
2023-01-30T19:44:09.752Z,28.40
2023-01-30T19:46:38.887Z,30.15
2023-01-30T19:49:07.140Z,32.80
2023-01-30T19:51:36.602Z,24.20
2023-01-30T19:54:07.309Z,31.17
2023-01-30T19:56:39.221Z,17.15
2023-01-30T19:59:09.278Z,28.95
2023-01-30T20:01:40.006Z,20.13
2023-01-30T20:04:08.085Z,18.58
2023-01-30T20:06:43.042Z,24.00
2023-01-30T20:09:12.164Z,25.33
2023-01-30T20:11:41.854Z,26.65
2023-01-30T20:14:13.322Z,23.13
2023-01-30T20:16:46.133Z,18.48
2023-01-30T20:19:18.247Z,24.38
2023-01-30T20:21:47.176Z,15.95
2023-01-30T20:24:15.977Z,19.88
2023-01-30T20:26:48.432Z,16.77
2023-01-30T20:29:18.461Z,19.20
2023-01-30T20:31:46.781Z,23.27
2023-01-30T20:34:15.691Z,17.00
2023-01-30T20:36:43.961Z,17.40
2023-01-30T20:39:14.245Z,29.17
2023-01-30T20:41:42.340Z,15.57
2023-01-30T20:44:13.425Z,15.93
2023-01-30T20:46:44.263Z,17.30
2023-01-30T20:49:15.954Z,11.43
2023-01-30T20:51:45.512Z,15.40
2023-01-30T20:54:18.126Z,12.05
2023-01-30T20:56:47.639Z,15.07
2023-01-30T20:59:17.628Z,11.80
2023-01-30T21:01:47.712Z,13.02
2023-01-30T21:04:17.540Z,18.08
2023-01-30T21:06:47.167Z,18.25
2023-01-30T21:09:17.165Z,9.43
2023-01-30T21:11:45.787Z,8.25
2023-01-30T21:14:14.253Z,12.13
2023-01-30T21:16:42.469Z,11.32
2023-01-30T21:19:18.666Z,18.02
2023-01-30T21:21:50.842Z,11.95
2023-01-30T21:24:21.607Z,13.52
2023-01-30T21:26:51.578Z,12.10
2023-01-30T21:29:22.710Z,8.20
2023-01-30T21:31:51.254Z,11.43
2023-01-30T21:34:20.765Z,9.98
2023-01-30T21:37:09.426Z,17.05
2023-01-30T21:39:55.246Z,10.95
2023-01-30T21:42:40.488Z,16.70
2023-01-30T21:45:09.757Z,16.45
2023-01-30T21:47:40.081Z,15.75
2023-01-30T21:50:12.560Z,14.18
2023-01-30T21:52:42.132Z,17.77
2023-01-30T21:55:11.048Z,17.48
2023-01-30T21:57:39.225Z,14.70
2023-01-30T22:00:08.389Z,17.15
2023-01-30T22:02:36.918Z,14.75
2023-01-30T22:05:05.914Z,18.95
2023-01-30T22:07:36.562Z,20.05
2023-01-30T22:10:05.203Z,16.27
2023-01-30T22:12:33.735Z,15.35
2023-01-30T22:15:03.226Z,20.25
2023-01-30T22:17:32.421Z,15.23
2023-01-30T22:20:01.045Z,23.45
2023-01-30T22:22:31.647Z,20.27
2023-01-30T22:25:03.131Z,27.25
2023-01-30T22:27:31.751Z,13.90
2023-01-30T22:29:59.829Z,29.10
2023-01-30T22:32:27.964Z,22.33
2023-01-30T22:34:56.725Z,19.98
2023-01-30T22:37:26.272Z,23.92
2023-01-30T22:39:54.453Z,21.88
2023-01-30T22:42:23.974Z,23.42
2023-01-30T22:44:54.658Z,24.02
2023-01-30T22:47:23.485Z,23.60
2023-01-30T22:49:51.956Z,28.15
2023-01-30T22:52:20.030Z,18.17
2023-01-30T22:54:48.541Z,18.45
2023-01-30T22:57:19.194Z,21.20
2023-01-30T22:59:48.549Z,22.67
2023-01-30T23:02:16.896Z,23.92
2023-01-30T23:04:45.251Z,23.33
2023-01-30T23:07:16.339Z,20.55
2023-01-30T23:09:44.812Z,15.93
2023-01-30T23:12:30.642Z,26.15
2023-01-30T23:15:00.398Z,23.92
2023-01-30T23:17:46.407Z,17.65
2023-01-30T23:20:14.562Z,20.42
2023-01-30T23:22:42.960Z,17.95
2023-01-30T23:25:12.001Z,21.33
2023-01-30T23:27:40.144Z,23.40
2023-01-30T23:30:12.201Z,21.48
2023-01-30T23:32:40.325Z,26.33
2023-01-30T23:35:08.841Z,17.77
2023-01-30T23:37:54.314Z,19.95
2023-01-30T23:40:23.844Z,18.02
2023-01-30T23:42:52.107Z,19.50
2023-01-30T23:45:21.763Z,17.83
2023-01-30T23:47:50.240Z,18.13
2023-01-30T23:50:19.324Z,20.25
2023-01-30T23:52:48.132Z,37.72
2023-01-30T23:55:16.672Z,23.30
2023-01-30T23:57:47.211Z,15.38
